Time;durP1;ratioP1;P1;durP2;ratioP2;P2;SDS_P1;SDS_P2;PMS_P1;PMS_P2;Temp;Humidity;BMP_temperature;BMP_pressure;BME280_temperature;BME280_humidity;BME280_pressure;Samples;Min_cycle;Max_cycle;Signal;HPM_P1;HPM_P2
2022/12/03 00:01:21;;;;;;;;;4.00;4.00;;;;;19.96;52.32;102160.17;105610;1295;19378;-62
2022/12/03 00:03:49;;;;;;;;;5.00;4.00;;;;;19.96;52.01;102161.11;105604;1274;23021;-62
2022/12/03 00:06:17;;;;;;;;;7.00;5.00;;;;;19.96;52.23;102160.39;105592;1296;20097;-63
2022/12/03 00:08:44;;;;;;;;;6.00;5.00;;;;;19.94;52.08;102164.69;105487;1274;19673;-62
2022/12/03 00:11:12;;;;;;;;;4.00;4.00;;;;;19.94;52.11;102163.66;105632;1297;23560;-63
2022/12/03 00:13:39;;;;;;;;;7.00;5.00;;;;;19.93;52.07;102166.81;105614;1279;20078;-62
2022/12/03 00:16:07;;;;;;;;;4.00;4.00;;;;;19.94;52.05;102167.48;105645;1279;19114;-61
2022/12/03 00:18:34;;;;;;;;;2.00;2.00;;;;;19.93;52.08;102162.27;105492;1295;238044;-61
2022/12/03 00:21:02;;;;;;;;;6.00;4.50;;;;;19.94;52.09;102166.52;105656;1282;20667;-62
2022/12/03 00:23:30;;;;;;;;;5.00;5.00;;;;;19.94;51.83;102159.70;105590;1296;24691;-62
2022/12/03 00:25:58;;;;;;;;;4.50;4.00;;;;;19.92;52.06;102159.67;105551;1271;20901;-63
2022/12/03 00:28:26;;;;;;;;;5.00;5.00;;;;;19.92;52.09;102162.21;105649;1279;20233;-63
2022/12/03 00:30:54;;;;;;;;;7.00;7.00;;;;;19.91;52.00;102163.52;105557;1297;19959;-63
2022/12/03 00:33:22;;;;;;;;;4.00;4.00;;;;;19.90;52.06;102161.09;105580;1291;19518;-60
2022/12/03 00:35:50;;;;;;;;;8.00;7.00;;;;;19.91;52.12;102157.20;105550;1271;20065;-63
2022/12/03 00:38:17;;;;;;;;;5.00;5.00;;;;;19.91;52.21;102160.78;105620;1288;19401;-62
2022/12/03 00:40:45;;;;;;;;;4.00;4.00;;;;;19.92;51.98;102156.41;105599;1298;23538;-63
2022/12/03 00:43:13;;;;;;;;;4.50;4.00;;;;;19.92;52.07;102155.33;105611;1281;20067;-62
2022/12/03 00:45:41;;;;;;;;;5.00;5.00;;;;;19.91;51.74;102153.92;105638;1280;19451;-61
2022/12/03 00:48:09;;;;;;;;;4.00;4.00;;;;;19.91;51.90;102151.75;105670;1280;20760;-62
2022/12/03 00:50:37;;;;;;;;;4.00;4.00;;;;;19.91;51.75;102157.94;105475;1271;21216;-62
2022/12/03 00:53:05;;;;;;;;;4.00;4.00;;;;;19.90;51.96;102154.89;105594;1280;19168;-64
2022/12/03 00:55:33;;;;;;;;;5.00;4.50;;;;;19.89;51.80;102150.63;105619;1279;19647;-61
2022/12/03 00:58:00;;;;;;;;;4.00;4.00;;;;;19.90;51.97;102152.78;105679;1288;22990;-61
2022/12/03 01:00:28;;;;;;;;;7.00;5.00;;;;;19.90;52.00;102153.66;105692;1297;22763;-61
2022/12/03 01:02:56;;;;;;;;;4.33;4.00;;;;;19.91;51.76;102151.71;105577;1300;23453;-63
2022/12/03 01:05:23;;;;;;;;;5.00;5.00;;;;;19.91;51.82;102158.45;105592;1280;23120;-62
2022/12/03 01:07:51;;;;;;;;;5.00;4.00;;;;;19.91;51.89;102154.47;105575;1279;22949;-62
2022/12/03 01:10:18;;;;;;;;;4.00;4.00;;;;;19.90;51.78;102152.42;105583;1279;19176;-62
2022/12/03 01:12:46;;;;;;;;;4.00;4.00;;;;;19.88;51.93;102148.56;105618;1289;23134;-62
2022/12/03 01:15:13;;;;;;;;;5.00;4.00;;;;;19.88;51.94;102149.52;105675;1297;19402;-62
2022/12/03 01:17:41;;;;;;;;;4.67;4.67;;;;;19.87;51.75;102146.11;105546;1296;19583;-62
2022/12/03 01:20:09;;;;;;;;;5.00;5.00;;;;;19.87;51.92;102149.95;105574;1289;23626;-62
2022/12/03 01:22:36;;;;;;;;;4.00;4.00;;;;;19.88;51.87;102146.65;105608;1297;23150;-62
2022/12/03 01:25:04;;;;;;;;;5.00;5.00;;;;;19.88;51.71;102147.67;105594;1291;19280;-62
2022/12/03 01:27:32;;;;;;;;;4.00;4.00;;;;;19.89;51.82;102146.30;105639;1297;20406;-63
2022/12/03 01:30:00;;;;;;;;;4.00;4.00;;;;;19.88;51.52;102140.64;105664;1297;22806;-62
2022/12/03 01:32:28;;;;;;;;;4.00;4.00;;;;;19.87;51.65;102142.54;105590;1279;19377;-62
2022/12/03 01:34:55;;;;;;;;;6.00;5.00;;;;;19.87;51.67;102141.73;105643;1297;20042;-63
2022/12/03 01:37:23;;;;;;;;;4.00;4.00;;;;;19.89;51.67;102137.80;105620;1295;19022;-63
2022/12/03 01:39:51;;;;;;;;;5.00;4.50;;;;;19.88;51.76;102139.48;105632;1297;23713;-63
2022/12/03 01:42:19;;;;;;;;;4.50;4.00;;;;;19.89;51.79;102141.84;105670;1290;21903;-63
2022/12/03 01:44:47;;;;;;;;;4.00;4.00;;;;;19.88;51.86;102141.02;105589;1288;19640;-61
2022/12/03 01:47:15;;;;;;;;;4.00;4.00;;;;;19.88;51.58;102142.81;105618;1272;23000;-63
2022/12/03 01:49:42;;;;;;;;;4.00;4.00;;;;;19.89;51.81;102140.75;105555;1295;20048;-60
2022/12/03 01:52:10;;;;;;;;;4.00;4.00;;;;;19.89;51.48;102143.27;105570;1297;19630;-61
2022/12/03 01:54:38;;;;;;;;;5.00;4.00;;;;;19.87;51.47;102138.30;105670;1295;20879;-61
2022/12/03 01:57:06;;;;;;;;;6.00;4.50;;;;;19.87;51.46;102140.14;105640;1297;21461;-63
2022/12/03 01:59:34;;;;;;;;;4.00;4.00;;;;;19.87;51.52;102138.73;105629;1279;19201;-63
2022/12/03 02:02:01;;;;;;;;;4.00;4.00;;;;;19.87;51.58;102141.46;105622;1297;19266;-61
2022/12/03 02:04:30;;;;;;;;;5.00;4.00;;;;;19.85;51.64;102141.41;105645;1279;20394;-62
2022/12/03 02:06:57;;;;;;;;;4.00;4.00;;;;;19.85;51.85;102137.02;105593;1295;19176;-63
2022/12/03 02:09:25;;;;;;;;;5.00;5.00;;;;;19.86;51.64;102136.58;105647;1292;19540;-62
2022/12/03 02:11:52;;;;;;;;;4.50;4.50;;;;;19.85;51.34;102131.61;105617;1272;20076;-63
2022/12/03 02:14:20;;;;;;;;;4.00;2.00;;;;;19.84;51.67;102133.36;105634;1296;19654;-63
2022/12/03 02:16:48;;;;;;;;;5.00;4.00;;;;;19.86;51.52;102127.78;105601;1288;23408;-62
2022/12/03 02:19:15;;;;;;;;;5.00;4.00;;;;;19.85;51.52;102130.36;105592;1272;20094;-62
2022/12/03 02:21:43;;;;;;;;;5.00;4.00;;;;;19.84;51.55;102127.52;105629;1295;19251;-63
2022/12/03 02:24:11;;;;;;;;;4.00;4.00;;;;;19.86;51.49;102124.30;105650;1300;19800;-62
2022/12/03 02:26:38;;;;;;;;;5.00;5.00;;;;;19.86;51.48;102122.84;105660;1297;21828;-63
2022/12/03 02:29:06;;;;;;;;;;;;;;;19.85;51.37;102123.28;105630;1292;19762;-61
2022/12/03 02:31:34;;;;;;;;;7.00;4.00;;;;;19.85;51.43;102121.50;105627;1295;20725;-62
2022/12/03 02:34:01;;;;;;;;;;;;;;;19.85;51.36;102119.50;105592;1294;20241;-62
2022/12/03 02:36:29;;;;;;;;;4.00;4.00;;;;;19.85;51.35;102120.55;105646;1276;19311;-63
2022/12/03 02:38:57;;;;;;;;;4.00;4.00;;;;;19.84;51.39;102115.52;105577;1288;23000;-63
2022/12/03 02:44:06;;;;;;;;;4.00;4.00;;;;;19.84;51.32;102111.54;105115;1285;19269;-62
2022/12/03 02:46:34;;;;;;;;;2.00;2.00;;;;;19.84;51.48;102109.77;105084;1294;24049;-61
2022/12/03 02:49:01;;;;;;;;;4.00;4.00;;;;;19.83;51.42;102107.18;105059;1301;20103;-60
2022/12/03 02:51:29;;;;;;;;;;;;;;;19.82;51.27;102108.65;105170;1303;19379;-63
2022/12/03 02:53:57;;;;;;;;;5.00;4.00;;;;;19.84;51.50;102106.02;105096;1302;29842;-63
2022/12/03 02:56:24;;;;;;;;;4.00;4.00;;;;;19.81;51.15;102107.88;105064;1288;20116;-63
2022/12/03 02:58:53;;;;;;;;;4.00;4.00;;;;;19.83;51.28;102111.00;105085;1286;19577;-63
2022/12/03 03:01:20;;;;;;;;;4.00;4.00;;;;;19.84;51.36;102108.16;105095;1287;19311;-63
2022/12/03 03:03:48;;;;;;;;;2.00;2.00;;;;;19.84;51.45;102110.36;105091;1288;20061;-62
2022/12/03 03:06:15;;;;;;;;;2.00;2.00;;;;;19.83;51.36;102111.68;105114;1302;23751;-63
2022/12/03 03:08:43;;;;;;;;;4.00;4.00;;;;;19.82;51.38;102116.45;105155;1285;19345;-63
2022/12/03 03:11:11;;;;;;;;;4.00;2.00;;;;;19.82;51.05;102113.54;105173;1302;20104;-61
2022/12/03 03:13:38;;;;;;;;;4.50;4.50;;;;;19.82;51.24;102115.41;105115;1288;19375;-62
2022/12/03 03:16:06;;;;;;;;;4.00;4.00;;;;;19.82;51.30;102113.05;105104;1280;19272;-62
2022/12/03 03:18:34;;;;;;;;;4.50;4.00;;;;;19.82;51.25;102112.66;105180;1306;23754;-66
2022/12/03 03:21:01;;;;;;;;;4.00;2.00;;;;;19.83;51.12;102111.00;105127;1287;19701;-62
2022/12/03 03:23:29;;;;;;;;;4.00;3.00;;;;;19.83;51.27;102112.97;105612;1276;19285;-60
2022/12/03 03:25:57;;;;;;;;;4.00;3.00;;;;;19.82;51.26;102103.40;105634;1275;21835;-63
2022/12/03 03:28:24;;;;;;;;;4.00;4.00;;;;;19.81;51.30;102103.72;105611;1295;22992;-61
2022/12/03 03:30:52;;;;;;;;;4.00;2.00;;;;;19.81;51.19;102102.25;105636;1279;19610;-59
2022/12/03 03:33:19;;;;;;;;;2.00;2.00;;;;;19.81;51.30;102105.36;105632;1297;20300;-62
2022/12/03 03:35:47;;;;;;;;;2.00;2.00;;;;;19.80;51.43;102100.50;105659;1272;19133;-62
2022/12/03 03:38:15;;;;;;;;;4.00;4.00;;;;;19.80;51.17;102103.44;105673;1295;19137;-62
2022/12/03 03:40:42;;;;;;;;;2.00;2.00;;;;;19.80;51.14;102098.86;105632;1291;20251;-62
2022/12/03 03:43:10;;;;;;;;;4.00;4.00;;;;;19.81;51.14;102100.30;105628;1297;21236;-63
2022/12/03 03:45:37;;;;;;;;;4.50;4.00;;;;;19.81;51.31;102099.73;105629;1294;20955;-63
2022/12/03 03:48:04;;;;;;;;;4.00;4.00;;;;;19.80;51.20;102096.02;105666;1279;22807;-62
2022/12/03 03:50:32;;;;;;;;;2.00;2.00;;;;;19.80;51.37;102095.28;105641;1271;19119;-62
2022/12/03 03:52:59;;;;;;;;;4.00;4.00;;;;;19.80;51.25;102092.19;105640;1279;19585;-61
2022/12/03 03:55:27;;;;;;;;;2.00;2.00;;;;;19.80;51.17;102092.91;105661;1286;21717;-61
2022/12/03 03:57:54;;;;;;;;;4.00;4.00;;;;;19.79;51.08;102091.33;105676;1294;19808;-63
2022/12/03 04:00:22;;;;;;;;;4.00;4.00;;;;;19.78;51.13;102091.23;105767;1297;19256;-63
2022/12/03 04:02:49;;;;;;;;;5.00;4.00;;;;;19.79;51.38;102091.58;105629;1297;23530;-63
2022/12/03 04:05:17;;;;;;;;;4.00;4.00;;;;;19.80;51.13;102086.57;105616;1289;21425;-63
2022/12/03 04:07:44;;;;;;;;;2.00;2.00;;;;;19.79;51.07;102083.91;105660;1272;21195;-63
2022/12/03 04:12:56;;;;;;;;;4.00;4.00;;;;;19.80;51.28;102081.46;105643;1298;19034;-63
2022/12/03 04:15:23;;;;;;;;;5.00;4.00;;;;;19.78;51.06;102077.46;105699;1288;20992;-62
2022/12/03 04:20:32;;;;;;;;;4.50;3.00;;;;;19.79;51.24;102078.67;105663;1279;21362;-61
2022/12/03 04:23:00;;;;;;;;;4.00;4.00;;;;;19.79;51.15;102074.16;105609;1279;21164;-62
2022/12/03 04:30:58;;;;;;;;;4.00;3.00;;;;;19.79;51.00;102081.16;105641;1297;19324;-63
2022/12/03 04:36:11;;;;;;;;;2.00;2.00;;;;;19.80;51.24;102082.02;105639;1301;19306;-63
2022/12/03 04:38:39;;;;;;;;;2.00;2.00;;;;;19.79;51.08;102078.52;105622;1279;20817;-62
2022/12/03 04:41:07;;;;;;;;;4.00;3.00;;;;;19.78;50.91;102076.78;105662;1288;20046;-62
2022/12/03 04:44:31;;;;;;;;;5.00;5.00;;;;;19.79;50.77;102078.15;105703;1295;19320;-62
2022/12/03 04:46:22;;;;;;;;;4.50;4.00;;;;;19.77;50.86;102074.45;105620;1272;21054;-63
2022/12/03 04:48:49;;;;;;;;;5.00;4.50;;;;;19.78;51.12;102074.05;105670;1280;22197;-61
2022/12/03 04:51:17;;;;;;;;;4.00;4.00;;;;;19.78;50.85;102073.31;105706;1276;19671;-62
2022/12/03 04:53:44;;;;;;;;;4.00;4.00;;;;;19.78;51.09;102074.05;105643;1296;21876;-62
2022/12/03 04:56:12;;;;;;;;;4.50;4.50;;;;;19.77;51.07;102069.77;105655;1279;21536;-62
2022/12/03 04:58:40;;;;;;;;;4.00;4.00;;;;;19.77;51.16;102068.50;105661;1272;19262;-64
2022/12/03 05:01:09;;;;;;;;;4.00;4.00;;;;;19.77;50.97;102061.80;105643;1294;19703;-63
2022/12/03 05:03:37;;;;;;;;;4.00;4.00;;;;;19.76;51.02;102063.73;105654;1297;20282;-62
2022/12/03 05:06:05;;;;;;;;;4.50;4.50;;;;;19.76;50.86;102063.49;105622;1297;19331;-62
2022/12/03 05:08:32;;;;;;;;;2.00;2.00;;;;;19.77;50.81;102067.75;105636;1279;22931;-62
2022/12/03 05:11:01;;;;;;;;;2.00;2.00;;;;;19.76;50.88;102063.70;105581;1297;20185;-63
2022/12/03 05:13:28;;;;;;;;;2.00;2.00;;;;;19.76;51.04;102059.52;105657;1287;19178;-62
2022/12/03 05:15:56;;;;;;;;;2.00;2.00;;;;;19.76;50.99;102058.83;105630;1297;22166;-62
2022/12/03 05:18:24;;;;;;;;;4.00;4.00;;;;;19.76;51.01;102056.28;105653;1288;20101;-62
2022/12/03 05:20:52;;;;;;;;;4.00;3.00;;;;;19.76;51.04;102058.48;105623;1288;23025;-62
2022/12/03 05:23:19;;;;;;;;;2.00;2.00;;;;;19.75;50.72;102054.88;105593;1294;19931;-64
2022/12/03 05:25:48;;;;;;;;;7.00;5.00;;;;;19.75;50.67;102053.24;105628;1279;20307;-63
2022/12/03 05:28:16;;;;;;;;;4.00;4.00;;;;;19.76;50.84;102048.48;105616;1272;19176;-62
2022/12/03 05:30:44;;;;;;;;;4.00;4.00;;;;;19.75;50.88;102050.89;105627;1292;19613;-63
2022/12/03 05:33:12;;;;;;;;;6.00;4.00;;;;;19.74;50.88;102049.18;105684;1297;20061;-62
2022/12/03 05:35:40;;;;;;;;;2.00;2.00;;;;;19.74;50.87;102045.75;105670;1295;19154;-63
2022/12/03 05:38:07;;;;;;;;;2.00;2.00;;;;;19.74;50.80;102045.40;105640;1275;19334;-62
2022/12/03 05:40:34;;;;;;;;;4.00;4.00;;;;;19.74;50.73;102044.30;105640;1287;21941;-62
2022/12/03 05:43:02;;;;;;;;;5.00;4.00;;;;;19.73;50.58;102043.24;105615;1280;21130;-63
2022/12/03 05:45:30;;;;;;;;;4.00;4.00;;;;;19.73;51.08;102046.31;105650;1297;21127;-63
2022/12/03 05:47:57;;;;;;;;;4.00;2.00;;;;;19.72;50.72;102042.68;105623;1281;21711;-63
2022/12/03 05:50:25;;;;;;;;;2.00;2.00;;;;;19.72;50.82;102043.34;105678;1288;19799;-63
2022/12/03 05:52:52;;;;;;;;;4.00;4.00;;;;;19.71;50.66;102040.42;105637;1272;22244;-63
2022/12/03 05:55:20;;;;;;;;;2.00;2.00;;;;;19.73;50.89;102038.95;105577;1288;20051;-63
2022/12/03 05:57:47;;;;;;;;;2.00;2.00;;;;;19.73;50.71;102037.09;105620;1272;20845;-63
2022/12/03 06:00:15;;;;;;;;;4.00;4.00;;;;;19.73;50.78;102036.75;105613;1279;19459;-62
2022/12/03 06:02:43;;;;;;;;;5.00;4.00;;;;;19.71;50.56;102036.73;105597;1291;20475;-64
2022/12/03 06:05:10;;;;;;;;;2.00;2.00;;;;;19.73;50.76;102036.20;105616;1277;19270;-61
2022/12/03 06:07:38;;;;;;;;;4.00;4.00;;;;;19.72;50.83;102033.02;105587;1272;19447;-62
2022/12/03 06:10:06;;;;;;;;;2.67;2.67;;;;;19.71;50.89;102034.27;105576;1281;20315;-62
2022/12/03 06:12:33;;;;;;;;;2.00;2.00;;;;;19.71;50.60;102037.47;105631;1291;19215;-62
2022/12/03 06:15:01;;;;;;;;;4.00;4.00;;;;;19.72;50.78;102037.01;105594;1289;21175;-62
2022/12/03 06:17:29;;;;;;;;;;;;;;;19.71;50.92;102036.76;105594;1279;23110;-61
2022/12/03 06:19:57;;;;;;;;;2.00;2.00;;;;;19.70;51.04;102034.61;105625;1289;19165;-62
2022/12/03 06:22:24;;;;;;;;;4.50;4.00;;;;;19.73;50.92;102038.92;105573;1281;19275;-62
2022/12/03 06:24:53;;;;;;;;;4.00;4.00;;;;;19.71;50.95;102038.36;105594;1297;22664;-63
2022/12/03 06:27:21;;;;;;;;;3.00;3.00;;;;;19.72;50.68;102039.62;105611;1288;19226;-64
2022/12/03 06:29:48;;;;;;;;;4.00;4.00;;;;;19.70;50.90;102039.02;105623;1279;20742;-62
2022/12/03 06:32:16;;;;;;;;;6.00;5.00;;;;;19.68;50.96;102039.69;105567;1289;20162;-63
2022/12/03 06:34:43;;;;;;;;;6.00;5.00;;;;;19.71;50.51;102043.63;105623;1282;23520;-62
2022/12/03 06:37:12;;;;;;;;;2.00;2.00;;;;;19.72;50.78;102041.50;105603;1272;23093;-62
2022/12/03 06:39:40;;;;;;;;;5.00;4.00;;;;;19.69;50.91;102042.56;105521;1301;24584;-63
2022/12/03 06:42:07;;;;;;;;;5.00;4.00;;;;;19.70;50.83;102039.44;105653;1297;21112;-63
2022/12/03 06:44:35;;;;;;;;;2.00;2.00;;;;;19.71;50.91;102041.27;105668;1272;19511;-63
2022/12/03 06:47:02;;;;;;;;;;;;;;;19.70;50.84;102041.22;105624;1278;22272;-63
2022/12/03 06:49:30;;;;;;;;;3.00;3.00;;;;;19.70;51.08;102045.55;105657;1279;19248;-62
2022/12/03 06:51:58;;;;;;;;;5.00;4.00;;;;;19.71;50.88;102049.40;105661;1279;23044;-60
2022/12/03 06:54:25;;;;;;;;;4.00;4.00;;;;;19.70;50.97;102041.96;105631;1271;21528;-63
2022/12/03 06:56:52;;;;;;;;;4.00;4.00;;;;;19.70;50.97;102038.33;105608;1296;19217;-63
2022/12/03 06:59:20;;;;;;;;;;;;;;;19.74;50.94;102045.00;105633;1289;21738;-63
2022/12/03 07:01:47;;;;;;;;;5.00;4.00;;;;;19.77;50.86;102040.98;105613;1279;20563;-64
2022/12/03 07:04:15;;;;;;;;;4.00;4.00;;;;;19.79;51.24;102043.48;105607;1271;19362;-62
2022/12/03 07:06:42;;;;;;;;;;;;;;;19.79;51.45;102039.31;105592;1280;19659;-63
2022/12/03 07:09:10;;;;;;;;;4.00;4.00;;;;;19.80;51.20;102042.45;105638;1279;20113;-62
2022/12/03 07:11:40;;;;;;;;;5.00;5.00;;;;;19.81;51.31;102041.11;105525;1272;22721;-62
2022/12/03 07:14:07;;;;;;;;;5.00;5.00;;;;;19.79;51.66;102039.12;105589;1275;19310;-61
2022/12/03 07:16:35;;;;;;;;;5.00;4.00;;;;;19.82;51.75;102040.69;105582;1279;20334;-62
2022/12/03 07:19:02;;;;;;;;;7.50;5.00;;;;;19.87;51.76;102036.08;105604;1279;19395;-62
2022/12/03 07:21:30;;;;;;;;;7.00;5.00;;;;;19.89;52.00;102034.36;105591;1279;19606;-64
2022/12/03 07:23:57;;;;;;;;;5.00;5.00;;;;;19.91;52.38;102031.33;105630;1300;20101;-64
2022/12/03 07:26:25;;;;;;;;;4.00;4.00;;;;;19.93;52.27;102031.48;105618;1296;19986;-62
2022/12/03 07:28:52;;;;;;;;;7.50;7.00;;;;;19.95;52.48;102031.66;105621;1279;19669;-63
2022/12/03 07:31:20;;;;;;;;;;;;;;;19.96;52.32;102031.56;105672;1297;20388;-62
2022/12/03 07:33:47;;;;;;;;;;;;;;;19.96;52.29;102029.19;105623;1279;19252;-61
2022/12/03 07:36:15;;;;;;;;;4.00;4.00;;;;;19.96;52.68;102031.37;105634;1297;20546;-61
2022/12/03 07:38:42;;;;;;;;;6.00;5.00;;;;;19.97;53.03;102028.95;105602;1298;23971;-63
2022/12/03 07:41:10;;;;;;;;;5.00;5.00;;;;;19.97;53.22;102029.11;105662;1279;19125;-61
2022/12/03 07:43:37;;;;;;;;;5.00;5.00;;;;;19.97;53.21;102031.30;105544;1272;19289;-63
2022/12/03 07:46:05;;;;;;;;;5.00;5.00;;;;;19.98;52.77;102029.42;105567;1281;20084;-60
2022/12/03 07:48:32;;;;;;;;;4.00;4.00;;;;;19.96;52.79;102026.66;105645;1296;19356;-61
2022/12/03 07:51:00;;;;;;;;;5.00;4.00;;;;;19.97;53.09;102030.92;105575;1279;19355;-61
2022/12/03 07:53:28;;;;;;;;;5.00;5.00;;;;;19.99;53.19;102030.20;105664;1297;21808;-61
2022/12/03 07:55:55;;;;;;;;;4.00;4.00;;;;;20.00;53.24;102032.84;105657;1288;20182;-61
2022/12/03 07:58:23;;;;;;;;;5.67;5.67;;;;;20.00;53.63;102029.55;105649;1295;23058;-62
2022/12/03 08:00:50;;;;;;;;;4.00;4.00;;;;;20.03;53.60;102029.46;105672;1297;21770;-62
2022/12/03 08:03:18;;;;;;;;;6.00;6.00;;;;;20.06;53.90;102024.45;105670;1294;24471;-64
2022/12/03 08:05:45;;;;;;;;;8.50;5.00;;;;;20.08;54.29;102025.05;105597;1294;19438;-60
2022/12/03 08:08:13;;;;;;;;;8.00;8.00;;;;;20.09;54.37;102022.94;105616;1290;20046;-63
2022/12/03 08:10:41;;;;;;;;;6.00;6.00;;;;;20.10;54.30;102027.02;105649;1281;19281;-63
2022/12/03 08:13:09;;;;;;;;;4.50;4.50;;;;;20.10;54.52;102025.93;105665;1279;20665;-63
2022/12/03 08:15:36;;;;;;;;;5.00;4.50;;;;;20.10;54.51;102022.83;105635;1295;24981;-64
2022/12/03 08:18:04;;;;;;;;;5.00;5.00;;;;;20.10;54.44;102021.57;105661;1274;26269;-62
2022/12/03 08:20:31;;;;;;;;;5.00;5.00;;;;;20.10;54.63;102022.65;105663;1281;23162;-63
2022/12/03 08:22:59;;;;;;;;;5.00;4.00;;;;;20.10;54.67;102021.75;105642;1279;20325;-63
2022/12/03 08:25:27;;;;;;;;;7.00;7.00;;;;;20.10;54.87;102020.01;105694;1272;19256;-63
2022/12/03 08:27:54;;;;;;;;;;;;;;;20.07;54.34;102020.76;105699;1271;23553;-62
2022/12/03 08:30:22;;;;;;;;;7.00;5.00;;;;;20.06;54.48;102013.45;105676;1297;20062;-63
2022/12/03 08:32:49;;;;;;;;;10.00;7.00;;;;;20.04;54.22;102015.24;105648;1278;19280;-62
2022/12/03 08:35:16;;;;;;;;;7.00;5.00;;;;;20.05;54.32;102010.84;105699;1294;24066;-61
2022/12/03 08:37:44;;;;;;;;;;;;;;;20.07;54.41;102006.44;105560;1271;20192;-62
2022/12/03 08:40:11;;;;;;;;;5.00;5.00;;;;;20.11;54.42;102003.94;105586;1279;19391;-63
2022/12/03 08:42:42;;;;;;;;;62.00;47.50;;;;;20.13;54.48;102006.02;105654;1279;24192;-63
2022/12/03 08:45:09;;;;;;;;;69.00;48.50;;;;;20.10;54.28;102004.90;105582;1274;21798;-64
2022/12/03 08:47:37;;;;;;;;;111.50;84.50;;;;;20.08;53.76;102003.05;105504;1275;19273;-63
2022/12/03 08:50:04;;;;;;;;;128.00;98.00;;;;;20.05;53.72;101998.84;105534;1271;19344;-63
2022/12/03 08:52:32;;;;;;;;;140.00;101.00;;;;;20.03;53.84;102007.36;105613;1279;21532;-63
2022/12/03 08:54:59;;;;;;;;;134.50;101.50;;;;;20.04;53.77;102010.04;105555;1280;23123;-63
2022/12/03 08:57:26;;;;;;;;;107.50;78.00;;;;;20.05;53.94;102010.10;105626;1297;19523;-62
2022/12/03 08:59:54;;;;;;;;;108.00;77.00;;;;;20.04;53.80;102012.32;105608;1296;21848;-61
2022/12/03 09:02:21;;;;;;;;;104.50;77.50;;;;;20.03;53.59;102014.04;105648;1279;20373;-63
2022/12/03 09:04:51;;;;;;;;;101.00;73.00;;;;;20.03;53.48;102013.49;105654;1279;24249;-62
2022/12/03 09:07:18;;;;;;;;;98.00;70.00;;;;;20.04;53.54;102019.98;105604;1279;23144;-60
2022/12/03 09:09:46;;;;;;;;;;;;;;;20.02;53.47;102018.31;105672;1272;18988;-61
2022/12/03 09:12:13;;;;;;;;;;;;;;;19.98;53.20;102012.30;105693;1297;19780;-63
2022/12/03 09:14:41;;;;;;;;;93.00;67.00;;;;;19.98;53.61;102013.06;105747;1297;20087;-64
2022/12/03 09:17:09;;;;;;;;;78.00;61.00;;;;;19.98;53.71;102012.13;105710;1272;22891;-65
2022/12/03 09:19:38;;;;;;;;;84.00;63.00;;;;;20.00;53.70;102011.07;105685;1297;22792;-64
2022/12/03 09:22:05;;;;;;;;;74.00;58.50;;;;;20.03;53.51;102012.30;105687;1272;22998;-63
2022/12/03 09:24:33;;;;;;;;;64.00;51.00;;;;;20.04;53.65;102015.62;105730;1282;19170;-65
2022/12/03 09:27:00;;;;;;;;;53.00;39.00;;;;;20.07;53.77;102016.97;105628;1279;19399;-64
2022/12/03 09:29:27;;;;;;;;;44.00;35.00;;;;;20.09;53.96;102016.23;105618;1279;21083;-63
2022/12/03 09:31:55;;;;;;;;;41.50;29.00;;;;;20.09;54.25;102011.16;105620;1294;19256;-64
2022/12/03 09:34:22;;;;;;;;;27.00;24.00;;;;;20.06;54.02;102003.27;105595;1287;21126;-64
2022/12/03 09:36:50;;;;;;;;;28.00;25.00;;;;;20.04;54.08;102011.59;105619;1286;20389;-65
2022/12/03 09:39:17;;;;;;;;;28.00;27.00;;;;;20.02;53.94;102016.68;105660;1297;20204;-65
2022/12/03 09:41:45;;;;;;;;;25.00;21.00;;;;;20.00;53.72;102016.88;105525;1279;19382;-65
2022/12/03 09:44:12;;;;;;;;;24.00;20.50;;;;;19.98;53.90;102013.78;105559;1279;20087;-64
2022/12/03 09:46:40;;;;;;;;;18.00;15.00;;;;;19.96;53.91;102015.01;105639;1295;23506;-65
2022/12/03 09:49:07;;;;;;;;;25.00;18.00;;;;;19.94;53.94;102017.42;105644;1292;19275;-65
2022/12/03 09:51:34;;;;;;;;;18.00;14.00;;;;;19.94;53.70;102014.90;105677;1276;20163;-64
2022/12/03 09:54:02;;;;;;;;;15.00;14.00;;;;;19.93;53.70;102016.27;105621;1272;24399;-64
2022/12/03 09:56:29;;;;;;;;;15.00;12.00;;;;;19.93;53.77;102014.09;105697;1279;21012;-63
2022/12/03 09:58:57;;;;;;;;;16.00;13.50;;;;;19.92;53.82;102014.91;105636;1279;22638;-63
2022/12/03 10:01:24;;;;;;;;;13.00;12.00;;;;;19.90;53.74;102008.35;105597;1282;19215;-62
2022/12/03 10:03:52;;;;;;;;;14.00;11.50;;;;;19.90;53.71;102009.45;105666;1296;19338;-64
2022/12/03 10:06:19;;;;;;;;;15.00;14.00;;;;;19.88;53.67;102009.05;105709;1297;22934;-63
2022/12/03 10:08:48;;;;;;;;;10.00;8.00;;;;;19.88;53.66;102005.33;105664;1281;23178;-63
2022/12/03 10:11:15;;;;;;;;;10.00;9.00;;;;;19.88;53.53;102001.35;105624;1300;19313;-63
2022/12/03 10:13:43;;;;;;;;;14.50;10.50;;;;;19.87;53.40;102000.10;105616;1295;20636;-63
2022/12/03 10:16:11;;;;;;;;;8.00;8.00;;;;;19.87;53.34;101999.21;105627;1272;19150;-64
2022/12/03 10:18:38;;;;;;;;;8.00;7.33;;;;;19.87;53.20;101998.81;105744;1272;19281;-64
2022/12/03 10:21:05;;;;;;;;;11.00;10.00;;;;;19.87;53.16;101990.54;105651;1279;20269;-64
2022/12/03 10:23:33;;;;;;;;;10.00;10.00;;;;;19.85;53.22;101990.09;105618;1279;19769;-64
2022/12/03 10:26:01;;;;;;;;;;;;;;;19.85;53.16;101989.41;105671;1279;19954;-64
2022/12/03 10:28:29;;;;;;;;;11.00;10.00;;;;;19.85;53.31;101986.66;105670;1279;20307;-66
2022/12/03 10:30:56;;;;;;;;;11.00;10.00;;;;;19.83;53.03;101978.84;105631;1288;19053;-64
2022/12/03 10:33:24;;;;;;;;;8.50;7.50;;;;;19.84;53.14;101982.02;105706;1297;20824;-65
2022/12/03 10:35:51;;;;;;;;;12.50;10.50;;;;;19.84;53.07;101980.59;105635;1289;20030;-64
2022/12/03 10:38:21;;;;;;;;;8.00;7.50;;;;;19.85;53.10;101979.27;105625;1288;19604;-64
2022/12/03 10:40:48;;;;;;;;;7.00;7.00;;;;;19.85;52.94;101974.20;105612;1271;23560;-64
2022/12/03 10:43:15;;;;;;;;;7.50;7.00;;;;;19.84;52.91;101970.28;105609;1279;20216;-63
2022/12/03 10:45:43;;;;;;;;;10.00;10.00;;;;;19.86;52.80;101967.22;105665;1292;19335;-64
2022/12/03 10:48:10;;;;;;;;;8.00;8.00;;;;;19.90;52.77;101964.45;105647;1273;22575;-65
2022/12/03 10:50:38;;;;;;;;;5.00;5.00;;;;;19.96;53.03;101959.33;105669;1291;21720;-63
2022/12/03 10:53:05;;;;;;;;;9.00;8.00;;;;;20.00;53.04;101953.31;105679;1272;19524;-65
2022/12/03 10:55:33;;;;;;;;;8.00;8.00;;;;;20.04;53.09;101952.67;105664;1280;22154;-65
2022/12/03 10:58:00;;;;;;;;;12.50;12.50;;;;;20.09;53.18;101954.33;105668;1279;20058;-64
2022/12/03 11:00:27;;;;;;;;;48.00;44.00;;;;;20.14;53.32;101951.86;105651;1280;19556;-64
2022/12/03 11:02:55;;;;;;;;;103.00;80.00;;;;;20.22;53.51;101944.75;105593;1282;19465;-65
2022/12/03 11:05:22;;;;;;;;;88.00;71.00;;;;;20.27;54.05;101942.13;105635;1272;22838;-64
2022/12/03 11:07:50;;;;;;;;;;;;;;;20.30;54.38;101936.27;105612;1279;19280;-64
2022/12/03 11:10:17;;;;;;;;;68.50;55.50;;;;;20.25;54.42;101940.67;105644;1295;20487;-64
2022/12/03 11:12:45;;;;;;;;;56.00;47.00;;;;;20.22;55.03;101937.55;105665;1297;21641;-64
2022/12/03 11:15:12;;;;;;;;;52.00;42.00;;;;;20.26;55.59;101930.04;105690;1298;23534;-63
2022/12/03 11:17:40;;;;;;;;;42.00;39.00;;;;;20.31;55.81;101931.10;105605;1271;19387;-65
2022/12/03 11:20:07;;;;;;;;;37.00;37.00;;;;;20.30;55.83;101923.68;105649;1274;21825;-64
2022/12/03 11:22:34;;;;;;;;;39.00;38.00;;;;;20.32;55.93;101924.05;105598;1279;19258;-65
2022/12/03 11:25:02;;;;;;;;;36.00;34.50;;;;;20.37;55.65;101919.96;105577;1294;19406;-63
2022/12/03 11:27:30;;;;;;;;;31.00;28.00;;;;;20.40;55.42;101922.77;105644;1279;20107;-63
2022/12/03 11:29:58;;;;;;;;;31.00;28.00;;;;;20.41;55.47;101922.26;105625;1272;19399;-64
2022/12/03 11:32:26;;;;;;;;;28.00;27.50;;;;;20.40;55.13;101924.55;105637;1279;19361;-64
2022/12/03 11:34:53;;;;;;;;;25.00;24.00;;;;;20.39;55.05;101923.56;105590;1296;20471;-65